sensor_id;sensor_type;location;lat;lon;timestamp;P1;P2;P0
72854;PMS7003;60991;51.278;22.550;2023-12-28T00:00:22;32.67;28.33;19.00
72854;PMS7003;60991;51.278;22.550;2023-12-28T00:01:52;15.00;12.33;4.00
72854;PMS7003;60991;51.278;22.550;2023-12-28T00:03:23;36.67;31.67;20.33
72854;PMS7003;60991;51.278;22.550;2023-12-28T00:04:53;41.00;34.00;22.33
72854;PMS7003;60991;51.278;22.550;2023-12-28T00:06:23;29.00;28.67;19.67
72854;PMS7003;60991;51.278;22.550;2023-12-28T00:07:53;36.67;28.67;20.33
72854;PMS7003;60991;51.278;22.550;2023-12-28T00:09:23;34.00;28.67;19.00
72854;PMS7003;60991;51.278;22.550;2023-12-28T00:10:54;27.33;25.33;17.67
72854;PMS7003;60991;51.278;22.550;2023-12-28T00:12:24;36.00;31.33;21.33
72854;PMS7003;60991;51.278;22.550;2023-12-28T00:13:54;30.25;27.25;18.75
72854;PMS7003;60991;51.278;22.550;2023-12-28T00:15:24;35.75;31.75;22.00
72854;PMS7003;60991;51.278;22.550;2023-12-28T00:16:55;40.00;30.00;20.75
72854;PMS7003;60991;51.278;22.550;2023-12-28T00:18:25;32.33;30.33;19.00
72854;PMS7003;60991;51.278;22.550;2023-12-28T00:19:55;33.00;27.00;19.00
72854;PMS7003;60991;51.278;22.550;2023-12-28T00:21:26;42.00;31.75;18.50
72854;PMS7003;60991;51.278;22.550;2023-12-28T00:22:56;41.00;26.67;19.00
72854;PMS7003;60991;51.278;22.550;2023-12-28T00:24:26;41.33;32.00;22.67
72854;PMS7003;60991;51.278;22.550;2023-12-28T00:25:56;39.00;36.33;22.00
72854;PMS7003;60991;51.278;22.550;2023-12-28T00:27:26;37.67;34.00;20.00
72854;PMS7003;60991;51.278;22.550;2023-12-28T00:28:57;32.33;26.67;18.67
72854;PMS7003;60991;51.278;22.550;2023-12-28T00:30:27;35.00;33.33;19.67
72854;PMS7003;60991;51.278;22.550;2023-12-28T00:31:57;35.00;35.00;23.00
72854;PMS7003;60991;51.278;22.550;2023-12-28T00:33:27;38.25;35.50;23.00
72854;PMS7003;60991;51.278;22.550;2023-12-28T00:34:57;51.00;39.67;22.00
72854;PMS7003;60991;51.278;22.550;2023-12-28T00:36:28;40.00;34.33;21.33
72854;PMS7003;60991;51.278;22.550;2023-12-28T00:37:59;38.25;31.50;22.50
72854;PMS7003;60991;51.278;22.550;2023-12-28T00:39:29;34.00;31.50;24.50
72854;PMS7003;60991;51.278;22.550;2023-12-28T00:40:59;43.33;35.00;24.33
72854;PMS7003;60991;51.278;22.550;2023-12-28T00:42:29;50.00;37.33;24.33
72854;PMS7003;60991;51.278;22.550;2023-12-28T00:43:59;45.00;36.00;21.67
72854;PMS7003;60991;51.278;22.550;2023-12-28T00:45:30;35.33;32.67;25.00
72854;PMS7003;60991;51.278;22.550;2023-12-28T00:47:00;44.67;34.33;22.00
72854;PMS7003;60991;51.278;22.550;2023-12-28T00:48:30;43.67;34.00;21.67
72854;PMS7003;60991;51.278;22.550;2023-12-28T00:50:00;48.00;31.33;22.33
72854;PMS7003;60991;51.278;22.550;2023-12-28T00:51:31;46.67;39.33;21.67
72854;PMS7003;60991;51.278;22.550;2023-12-28T00:53:01;47.00;36.33;25.33
72854;PMS7003;60991;51.278;22.550;2023-12-28T00:54:31;43.33;35.33;20.00
72854;PMS7003;60991;51.278;22.550;2023-12-28T00:56:01;43.33;33.00;21.67
72854;PMS7003;60991;51.278;22.550;2023-12-28T00:57:31;36.67;31.33;20.33
72854;PMS7003;60991;51.278;22.550;2023-12-28T00:59:01;45.33;34.00;24.33
72854;PMS7003;60991;51.278;22.550;2023-12-28T01:00:32;48.67;35.00;19.33
72854;PMS7003;60991;51.278;22.550;2023-12-28T01:02:02;28.67;28.67;21.00
72854;PMS7003;60991;51.278;22.550;2023-12-28T01:03:32;35.25;30.50;22.50
72854;PMS7003;60991;51.278;22.550;2023-12-28T01:05:02;35.33;32.00;20.33
72854;PMS7003;60991;51.278;22.550;2023-12-28T01:06:33;40.50;31.00;19.00
72854;PMS7003;60991;51.278;22.550;2023-12-28T01:08:03;31.50;25.50;20.25
72854;PMS7003;60991;51.278;22.550;2023-12-28T01:09:33;39.25;32.50;21.25
72854;PMS7003;60991;51.278;22.550;2023-12-28T01:11:04;35.33;27.00;18.67
72854;PMS7003;60991;51.278;22.550;2023-12-28T01:12:34;26.67;22.33;17.00
72854;PMS7003;60991;51.278;22.550;2023-12-28T01:14:04;32.75;27.25;18.00
72854;PMS7003;60991;51.278;22.550;2023-12-28T01:15:34;25.50;22.00;15.75
72854;PMS7003;60991;51.278;22.550;2023-12-28T01:17:05;25.33;25.00;16.33
72854;PMS7003;60991;51.278;22.550;2023-12-28T01:18:35;21.33;20.67;14.33
72854;PMS7003;60991;51.278;22.550;2023-12-28T01:20:05;29.67;22.00;14.00
72854;PMS7003;60991;51.278;22.550;2023-12-28T01:21:36;31.25;23.00;17.00
72854;PMS7003;60991;51.278;22.550;2023-12-28T01:23:06;23.00;18.75;14.75
72854;PMS7003;60991;51.278;22.550;2023-12-28T01:24:36;23.33;21.67;11.00
72854;PMS7003;60991;51.278;22.550;2023-12-28T01:26:11;38.00;27.00;17.00
72854;PMS7003;60991;51.278;22.550;2023-12-28T01:27:42;31.50;21.00;15.50
72854;PMS7003;60991;51.278;22.550;2023-12-28T01:29:12;26.00;21.33;15.00
72854;PMS7003;60991;51.278;22.550;2023-12-28T01:30:43;31.25;21.00;15.00
72854;PMS7003;60991;51.278;22.550;2023-12-28T01:32:13;26.33;24.33;17.00
72854;PMS7003;60991;51.278;22.550;2023-12-28T01:33:43;31.67;25.33;16.67
72854;PMS7003;60991;51.278;22.550;2023-12-28T01:35:13;30.00;24.00;17.33
72854;PMS7003;60991;51.278;22.550;2023-12-28T01:36:44;22.75;17.25;9.25
72854;PMS7003;60991;51.278;22.550;2023-12-28T01:38:14;25.25;19.25;15.00
72854;PMS7003;60991;51.278;22.550;2023-12-28T01:39:45;27.67;22.33;14.00
72854;PMS7003;60991;51.278;22.550;2023-12-28T01:41:15;21.67;20.67;15.00
72854;PMS7003;60991;51.278;22.550;2023-12-28T01:42:45;19.33;19.33;14.67
72854;PMS7003;60991;51.278;22.550;2023-12-28T01:44:15;27.67;18.00;11.33
72854;PMS7003;60991;51.278;22.550;2023-12-28T01:45:45;24.00;20.00;14.33
72854;PMS7003;60991;51.278;22.550;2023-12-28T01:47:16;25.50;20.25;15.00
72854;PMS7003;60991;51.278;22.550;2023-12-28T01:48:48;18.75;18.75;15.00
72854;PMS7003;60991;51.278;22.550;2023-12-28T01:50:20;21.75;21.75;15.00
72854;PMS7003;60991;51.278;22.550;2023-12-28T01:51:52;17.50;16.00;10.50
72854;PMS7003;60991;51.278;22.550;2023-12-28T01:53:23;18.50;18.00;15.25
72854;PMS7003;60991;51.278;22.550;2023-12-28T01:54:53;24.00;18.25;13.50
72854;PMS7003;60991;51.278;22.550;2023-12-28T01:56:23;24.00;20.00;14.00
72854;PMS7003;60991;51.278;22.550;2023-12-28T01:57:54;21.25;19.50;12.00
72854;PMS7003;60991;51.278;22.550;2023-12-28T01:59:25;25.75;22.00;14.25
72854;PMS7003;60991;51.278;22.550;2023-12-28T02:00:55;21.25;20.75;13.25
72854;PMS7003;60991;51.278;22.550;2023-12-28T02:02:27;33.50;18.25;11.50
72854;PMS7003;60991;51.278;22.550;2023-12-28T02:03:57;24.00;18.25;12.00
72854;PMS7003;60991;51.278;22.550;2023-12-28T02:05:28;17.75;17.75;13.00
72854;PMS7003;60991;51.278;22.550;2023-12-28T02:06:59;15.75;14.25;11.25
72854;PMS7003;60991;51.278;22.550;2023-12-28T02:08:30;22.50;20.50;14.25
72854;PMS7003;60991;51.278;22.550;2023-12-28T02:10:00;21.00;18.67;14.00
72854;PMS7003;60991;51.278;22.550;2023-12-28T02:11:30;21.00;18.00;12.00
72854;PMS7003;60991;51.278;22.550;2023-12-28T02:13:01;21.00;19.00;14.25
72854;PMS7003;60991;51.278;22.550;2023-12-28T02:14:31;24.00;20.33;15.00
72854;PMS7003;60991;51.278;22.550;2023-12-28T02:16:02;27.25;21.00;14.50
72854;PMS7003;60991;51.278;22.550;2023-12-28T02:17:38;18.00;15.00;9.25
72854;PMS7003;60991;51.278;22.550;2023-12-28T02:19:59;22.25;20.75;15.25
72854;PMS7003;60991;51.278;22.550;2023-12-28T02:21:10;17.50;16.25;9.75
72854;PMS7003;60991;51.278;22.550;2023-12-28T02:22:42;21.00;17.50;11.75
72854;PMS7003;60991;51.278;22.550;2023-12-28T02:24:13;24.25;18.25;12.00
72854;PMS7003;60991;51.278;22.550;2023-12-28T02:25:43;21.33;17.67;12.67
72854;PMS7003;60991;51.278;22.550;2023-12-28T02:27:14;37.00;27.00;14.00
72854;PMS7003;60991;51.278;22.550;2023-12-28T02:28:44;18.33;15.33;12.00
72854;PMS7003;60991;51.278;22.550;2023-12-28T02:30:15;27.50;22.50;15.00
72854;PMS7003;60991;51.278;22.550;2023-12-28T02:31:51;21.00;20.25;14.25
72854;PMS7003;60991;51.278;22.550;2023-12-28T02:33:42;18.25;17.25;12.50
72854;PMS7003;60991;51.278;22.550;2023-12-28T02:37:11;28.75;24.50;15.50
72854;PMS7003;60991;51.278;22.550;2023-12-28T02:38:46;22.75;20.25;15.75
72854;PMS7003;60991;51.278;22.550;2023-12-28T02:40:19;21.50;19.00;14.00
72854;PMS7003;60991;51.278;22.550;2023-12-28T02:41:49;12.50;12.00;9.50
72854;PMS7003;60991;51.278;22.550;2023-12-28T02:43:19;19.50;18.00;12.50
72854;PMS7003;60991;51.278;22.550;2023-12-28T02:44:49;29.75;25.00;15.50
72854;PMS7003;60991;51.278;22.550;2023-12-28T02:46:20;26.50;21.75;16.25
72854;PMS7003;60991;51.278;22.550;2023-12-28T02:47:50;25.67;24.00;15.33
72854;PMS7003;60991;51.278;22.550;2023-12-28T02:49:20;19.33;15.33;7.33
72854;PMS7003;60991;51.278;22.550;2023-12-28T02:50:51;31.75;26.50;18.00
72854;PMS7003;60991;51.278;22.550;2023-12-28T02:52:21;31.50;26.50;18.25
72854;PMS7003;60991;51.278;22.550;2023-12-28T02:53:51;32.00;26.33;16.67
72854;PMS7003;60991;51.278;22.550;2023-12-28T02:55:22;26.67;21.00;15.00
72854;PMS7003;60991;51.278;22.550;2023-12-28T02:56:52;30.00;28.00;19.50
72854;PMS7003;60991;51.278;22.550;2023-12-28T02:58:23;30.67;25.00;16.67
72854;PMS7003;60991;51.278;22.550;2023-12-28T02:59:53;35.00;27.67;19.00
72854;PMS7003;60991;51.278;22.550;2023-12-28T03:01:23;37.00;27.67;17.67
72854;PMS7003;60991;51.278;22.550;2023-12-28T03:02:53;28.67;21.67;15.67
72854;PMS7003;60991;51.278;22.550;2023-12-28T03:04:23;28.67;22.67;18.33
72854;PMS7003;60991;51.278;22.550;2023-12-28T03:05:54;29.67;24.00;15.33
72854;PMS7003;60991;51.278;22.550;2023-12-28T03:07:24;32.67;26.00;16.00
72854;PMS7003;60991;51.278;22.550;2023-12-28T03:08:54;22.00;15.33;9.67
72854;PMS7003;60991;51.278;22.550;2023-12-28T03:10:24;27.00;23.00;15.00
72854;PMS7003;60991;51.278;22.550;2023-12-28T03:11:54;26.00;20.00;14.25
72854;PMS7003;60991;51.278;22.550;2023-12-28T03:13:25;24.00;19.67;16.00
72854;PMS7003;60991;51.278;22.550;2023-12-28T03:14:55;26.25;24.25;14.75
72854;PMS7003;60991;51.278;22.550;2023-12-28T03:16:25;25.00;20.75;15.00
72854;PMS7003;60991;51.278;22.550;2023-12-28T03:17:56;25.33;19.00;13.33
72854;PMS7003;60991;51.278;22.550;2023-12-28T03:19:26;21.67;19.33;13.33
72854;PMS7003;60991;51.278;22.550;2023-12-28T03:20:56;27.33;19.67;14.33
72854;PMS7003;60991;51.278;22.550;2023-12-28T03:22:26;19.67;19.00;14.67
72854;PMS7003;60991;51.278;22.550;2023-12-28T03:23:56;22.33;18.00;13.33
72854;PMS7003;60991;51.278;22.550;2023-12-28T03:25:27;27.00;19.00;11.00
72854;PMS7003;60991;51.278;22.550;2023-12-28T03:26:57;20.00;19.00;15.00
72854;PMS7003;60991;51.278;22.550;2023-12-28T03:28:27;23.25;17.75;13.25
72854;PMS7003;60991;51.278;22.550;2023-12-28T03:29:57;20.67;18.67;13.33
72854;PMS7003;60991;51.278;22.550;2023-12-28T03:31:28;25.75;19.25;15.00
72854;PMS7003;60991;51.278;22.550;2023-12-28T03:32:58;29.33;25.00;15.00
72854;PMS7003;60991;51.278;22.550;2023-12-28T03:34:28;21.67;18.33;14.67
72854;PMS7003;60991;51.278;22.550;2023-12-28T03:35:58;25.00;21.67;14.33
72854;PMS7003;60991;51.278;22.550;2023-12-28T03:37:28;25.67;22.33;16.00
72854;PMS7003;60991;51.278;22.550;2023-12-28T03:38:59;26.00;19.00;15.00
72854;PMS7003;60991;51.278;22.550;2023-12-28T03:40:29;26.00;21.00;15.67
72854;PMS7003;60991;51.278;22.550;2023-12-28T03:41:59;21.67;19.67;12.67
72854;PMS7003;60991;51.278;22.550;2023-12-28T03:43:29;21.33;18.33;12.33
72854;PMS7003;60991;51.278;22.550;2023-12-28T03:44:59;18.00;17.00;13.33
72854;PMS7003;60991;51.278;22.550;2023-12-28T03:46:29;21.67;19.00;14.00
72854;PMS7003;60991;51.278;22.550;2023-12-28T03:48:00;29.33;23.00;14.00
72854;PMS7003;60991;51.278;22.550;2023-12-28T03:49:30;22.00;19.00;13.33
72854;PMS7003;60991;51.278;22.550;2023-12-28T03:51:00;21.67;20.33;14.00
72854;PMS7003;60991;51.278;22.550;2023-12-28T03:52:30;23.33;15.00;11.67
72854;PMS7003;60991;51.278;22.550;2023-12-28T03:54:00;16.67;16.67;12.33
72854;PMS7003;60991;51.278;22.550;2023-12-28T03:55:31;20.33;18.33;11.00
72854;PMS7003;60991;51.278;22.550;2023-12-28T03:57:01;25.50;19.50;12.00
72854;PMS7003;60991;51.278;22.550;2023-12-28T03:58:31;21.50;13.00;11.50
72854;PMS7003;60991;51.278;22.550;2023-12-28T04:00:02;9.67;9.67;7.00
72854;PMS7003;60991;51.278;22.550;2023-12-28T04:01:32;16.75;15.50;11.00
72854;PMS7003;60991;51.278;22.550;2023-12-28T04:03:03;23.50;19.00;13.75
72854;PMS7003;60991;51.278;22.550;2023-12-28T04:04:33;3.50;2.00;1.00
72854;PMS7003;60991;51.278;22.550;2023-12-28T04:06:03;19.33;16.67;13.33
72854;PMS7003;60991;51.278;22.550;2023-12-28T04:07:34;21.75;15.75;11.75
72854;PMS7003;60991;51.278;22.550;2023-12-28T04:09:04;20.00;17.00;12.00
72854;PMS7003;60991;51.278;22.550;2023-12-28T04:10:35;23.00;17.00;11.50
72854;PMS7003;60991;51.278;22.550;2023-12-28T04:12:06;13.00;13.00;10.50
72854;PMS7003;60991;51.278;22.550;2023-12-28T04:13:36;25.50;21.00;14.75
72854;PMS7003;60991;51.278;22.550;2023-12-28T04:15:06;21.75;18.25;13.25
72854;PMS7003;60991;51.278;22.550;2023-12-28T04:16:37;16.00;16.00;11.50
72854;PMS7003;60991;51.278;22.550;2023-12-28T04:18:07;20.33;18.67;12.00
72854;PMS7003;60991;51.278;22.550;2023-12-28T04:19:37;13.33;13.33;7.33
72854;PMS7003;60991;51.278;22.550;2023-12-28T04:21:08;22.00;19.67;15.00
72854;PMS7003;60991;51.278;22.550;2023-12-28T04:22:39;22.00;16.00;12.00
72854;PMS7003;60991;51.278;22.550;2023-12-28T04:24:09;26.33;19.67;14.00
72854;PMS7003;60991;51.278;22.550;2023-12-28T04:25:39;25.25;22.75;16.25
72854;PMS7003;60991;51.278;22.550;2023-12-28T04:27:10;28.25;23.00;18.00
72854;PMS7003;60991;51.278;22.550;2023-12-28T04:28:40;22.00;19.67;15.00
72854;PMS7003;60991;51.278;22.550;2023-12-28T04:30:13;17.67;16.00;11.33
72854;PMS7003;60991;51.278;22.550;2023-12-28T04:31:44;22.00;21.25;14.50
72854;PMS7003;60991;51.278;22.550;2023-12-28T04:33:16;23.00;17.67;14.00
72854;PMS7003;60991;51.278;22.550;2023-12-28T04:34:47;25.75;22.75;15.25
72854;PMS7003;60991;51.278;22.550;2023-12-28T04:36:17;30.67;21.33;16.00
72854;PMS7003;60991;51.278;22.550;2023-12-28T04:37:47;30.67;20.33;14.00
72854;PMS7003;60991;51.278;22.550;2023-12-28T04:39:17;21.00;14.33;9.67
72854;PMS7003;60991;51.278;22.550;2023-12-28T04:40:47;25.67;18.67;15.00
72854;PMS7003;60991;51.278;22.550;2023-12-28T04:42:18;22.00;15.67;12.00
72854;PMS7003;60991;51.278;22.550;2023-12-28T04:43:48;26.75;20.50;15.00
72854;PMS7003;60991;51.278;22.550;2023-12-28T04:45:18;27.00;21.67;15.00
72854;PMS7003;60991;51.278;22.550;2023-12-28T04:46:49;23.67;21.67;15.00
72854;PMS7003;60991;51.278;22.550;2023-12-28T04:48:19;25.00;21.33;15.67
72854;PMS7003;60991;51.278;22.550;2023-12-28T04:49:49;31.00;20.67;15.00
72854;PMS7003;60991;51.278;22.550;2023-12-28T04:51:19;25.67;22.00;16.33
72854;PMS7003;60991;51.278;22.550;2023-12-28T04:52:49;24.33;17.67;14.00
72854;PMS7003;60991;51.278;22.550;2023-12-28T04:54:20;24.67;22.00;17.00
72854;PMS7003;60991;51.278;22.550;2023-12-28T04:55:50;24.33;19.33;12.00
72854;PMS7003;60991;51.278;22.550;2023-12-28T04:57:20;22.00;18.00;11.00
72854;PMS7003;60991;51.278;22.550;2023-12-28T04:58:50;22.33;18.00;14.00
72854;PMS7003;60991;51.278;22.550;2023-12-28T05:00:20;23.33;21.00;14.00
72854;PMS7003;60991;51.278;22.550;2023-12-28T05:01:51;21.00;19.33;14.00
72854;PMS7003;60991;51.278;22.550;2023-12-28T05:03:21;27.50;17.25;13.50
72854;PMS7003;60991;51.278;22.550;2023-12-28T05:04:51;26.33;19.33;14.00
72854;PMS7003;60991;51.278;22.550;2023-12-28T05:06:21;23.00;19.67;14.00
72854;PMS7003;60991;51.278;22.550;2023-12-28T05:07:52;27.67;24.00;15.00
72854;PMS7003;60991;51.278;22.550;2023-12-28T05:09:22;24.00;21.75;15.25
72854;PMS7003;60991;51.278;22.550;2023-12-28T05:10:52;31.75;15.25;12.50
72854;PMS7003;60991;51.278;22.550;2023-12-28T05:12:23;26.67;18.00;14.00
72854;PMS7003;60991;51.278;22.550;2023-12-28T05:13:53;22.33;19.67;14.00
72854;PMS7003;60991;51.278;22.550;2023-12-28T05:15:23;27.00;20.50;13.00
72854;PMS7003;60991;51.278;22.550;2023-12-28T05:16:53;17.33;13.33;11.00
72854;PMS7003;60991;51.278;22.550;2023-12-28T05:18:24;23.00;18.25;14.25
72854;PMS7003;60991;51.278;22.550;2023-12-28T05:19:54;25.00;19.67;12.00
72854;PMS7003;60991;51.278;22.550;2023-12-28T05:21:24;24.67;19.67;15.00
72854;PMS7003;60991;51.278;22.550;2023-12-28T05:22:54;20.67;18.67;14.33
72854;PMS7003;60991;51.278;22.550;2023-12-28T05:24:24;26.00;21.00;15.67
72854;PMS7003;60991;51.278;22.550;2023-12-28T05:25:55;27.00;17.67;12.00
72854;PMS7003;60991;51.278;22.550;2023-12-28T05:27:25;24.00;19.33;15.67
72854;PMS7003;60991;51.278;22.550;2023-12-28T05:28:55;26.33;20.67;12.00
72854;PMS7003;60991;51.278;22.550;2023-12-28T05:30:25;18.00;14.33;11.00
72854;PMS7003;60991;51.278;22.550;2023-12-28T05:31:55;20.00;17.33;11.67
72854;PMS7003;60991;51.278;22.550;2023-12-28T05:33:26;23.00;20.67;14.33
72854;PMS7003;60991;51.278;22.550;2023-12-28T05:34:56;20.00;16.67;11.33
72854;PMS7003;60991;51.278;22.550;2023-12-28T05:36:26;24.33;18.67;12.67
72854;PMS7003;60991;51.278;22.550;2023-12-28T05:37:56;22.33;18.33;12.67
72854;PMS7003;60991;51.278;22.550;2023-12-28T05:39:26;26.00;19.67;15.67
72854;PMS7003;60991;51.278;22.550;2023-12-28T05:40:56;26.67;18.33;14.00
72854;PMS7003;60991;51.278;22.550;2023-12-28T05:42:27;21.33;18.67;13.33
72854;PMS7003;60991;51.278;22.550;2023-12-28T05:43:57;20.00;18.00;12.00
72854;PMS7003;60991;51.278;22.550;2023-12-28T05:45:27;19.33;19.33;17.33
72854;PMS7003;60991;51.278;22.550;2023-12-28T05:46:57;30.33;20.33;12.00
72854;PMS7003;60991;51.278;22.550;2023-12-28T05:48:27;20.00;17.67;13.33
72854;PMS7003;60991;51.278;22.550;2023-12-28T05:49:58;24.33;17.33;12.00
72854;PMS7003;60991;51.278;22.550;2023-12-28T05:51:28;21.67;19.67;14.33
72854;PMS7003;60991;51.278;22.550;2023-12-28T05:52:58;20.00;18.67;14.00
72854;PMS7003;60991;51.278;22.550;2023-12-28T05:54:28;17.33;12.00;11.00
72854;PMS7003;60991;51.278;22.550;2023-12-28T05:55:58;19.67;17.33;12.00
72854;PMS7003;60991;51.278;22.550;2023-12-28T05:57:30;16.25;16.00;11.00
72854;PMS7003;60991;51.278;22.550;2023-12-28T05:59:01;22.67;19.33;14.67
72854;PMS7003;60991;51.278;22.550;2023-12-28T06:00:31;15.00;11.50;10.00
72854;PMS7003;60991;51.278;22.550;2023-12-28T06:02:01;23.67;19.67;14.67
72854;PMS7003;60991;51.278;22.550;2023-12-28T06:03:31;21.25;16.50;12.00
72854;PMS7003;60991;51.278;22.550;2023-12-28T06:05:02;18.00;16.33;11.00
72854;PMS7003;60991;51.278;22.550;2023-12-28T06:06:32;19.00;15.50;11.25
72854;PMS7003;60991;51.278;22.550;2023-12-28T06:08:02;21.00;17.00;11.00
72854;PMS7003;60991;51.278;22.550;2023-12-28T06:09:32;20.50;16.75;11.00
72854;PMS7003;60991;51.278;22.550;2023-12-28T06:11:03;26.00;17.33;12.67
72854;PMS7003;60991;51.278;22.550;2023-12-28T06:12:33;14.00;13.67;11.33
72854;PMS7003;60991;51.278;22.550;2023-12-28T06:14:03;25.00;22.33;14.67
72854;PMS7003;60991;51.278;22.550;2023-12-28T06:15:33;18.00;14.67;12.00
72854;PMS7003;60991;51.278;22.550;2023-12-28T06:17:03;18.67;18.67;12.00
72854;PMS7003;60991;51.278;22.550;2023-12-28T06:18:34;18.67;15.00;12.00
72854;PMS7003;60991;51.278;22.550;2023-12-28T06:20:04;21.33;14.67;13.33
72854;PMS7003;60991;51.278;22.550;2023-12-28T06:21:35;19.00;19.00;12.25
72854;PMS7003;60991;51.278;22.550;2023-12-28T06:23:06;22.00;18.00;11.67
72854;PMS7003;60991;51.278;22.550;2023-12-28T06:24:40;19.75;11.75;8.00
72854;PMS7003;60991;51.278;22.550;2023-12-28T06:26:10;16.00;13.25;11.00
72854;PMS7003;60991;51.278;22.550;2023-12-28T06:27:40;12.00;8.67;3.33
72854;PMS7003;60991;51.278;22.550;2023-12-28T06:29:10;19.67;18.00;12.00
72854;PMS7003;60991;51.278;22.550;2023-12-28T06:30:40;18.50;16.25;10.75
72854;PMS7003;60991;51.278;22.550;2023-12-28T06:32:11;16.00;15.67;11.00
72854;PMS7003;60991;51.278;22.550;2023-12-28T06:33:41;19.50;16.75;11.75
72854;PMS7003;60991;51.278;22.550;2023-12-28T06:35:11;18.00;16.67;11.33
72854;PMS7003;60991;51.278;22.550;2023-12-28T06:36:41;17.00;17.00;12.67
72854;PMS7003;60991;51.278;22.550;2023-12-28T06:38:11;21.33;16.67;12.67
72854;PMS7003;60991;51.278;22.550;2023-12-28T06:39:42;19.67;14.00;11.00
72854;PMS7003;60991;51.278;22.550;2023-12-28T06:41:12;22.33;19.00;14.33
72854;PMS7003;60991;51.278;22.550;2023-12-28T06:42:42;15.75;15.75;12.00
72854;PMS7003;60991;51.278;22.550;2023-12-28T06:44:13;12.00;8.67;8.00
72854;PMS7003;60991;51.278;22.550;2023-12-28T06:45:43;23.75;20.50;14.00
72854;PMS7003;60991;51.278;22.550;2023-12-28T06:47:13;19.67;18.00;12.67
72854;PMS7003;60991;51.278;22.550;2023-12-28T06:48:43;18.33;17.00;13.33
72854;PMS7003;60991;51.278;22.550;2023-12-28T06:50:14;16.50;15.50;11.25
72854;PMS7003;60991;51.278;22.550;2023-12-28T06:51:44;17.00;15.50;12.00
72854;PMS7003;60991;51.278;22.550;2023-12-28T06:53:14;18.00;14.00;11.67
72854;PMS7003;60991;51.278;22.550;2023-12-28T06:54:44;28.00;22.00;15.00
72854;PMS7003;60991;51.278;22.550;2023-12-28T06:56:15;26.33;14.67;11.33
72854;PMS7003;60991;51.278;22.550;2023-12-28T06:57:45;15.75;14.25;11.75
72854;PMS7003;60991;51.278;22.550;2023-12-28T06:59:15;13.33;12.00;11.00
72854;PMS7003;60991;51.278;22.550;2023-12-28T07:00:45;14.67;14.00;11.67
72854;PMS7003;60991;51.278;22.550;2023-12-28T07:02:16;13.00;10.50;7.25
72854;PMS7003;60991;51.278;22.550;2023-12-28T07:03:46;17.33;8.33;7.67
72854;PMS7003;60991;51.278;22.550;2023-12-28T07:05:16;5.00;0.33;0.00
72854;PMS7003;60991;51.278;22.550;2023-12-28T07:06:46;14.00;14.00;11.67
72854;PMS7003;60991;51.278;22.550;2023-12-28T07:08:16;24.67;17.33;9.00
72854;PMS7003;60991;51.278;22.550;2023-12-28T07:09:47;21.00;14.00;11.67
72854;PMS7003;60991;51.278;22.550;2023-12-28T07:11:17;20.00;19.33;15.33
72854;PMS7003;60991;51.278;22.550;2023-12-28T07:12:47;24.33;16.33;11.33
72854;PMS7003;60991;51.278;22.550;2023-12-28T07:14:17;14.00;14.00;10.33
72854;PMS7003;60991;51.278;22.550;2023-12-28T07:15:47;17.00;12.00;10.33
72854;PMS7003;60991;51.278;22.550;2023-12-28T07:17:18;24.75;18.00;12.50
72854;PMS7003;60991;51.278;22.550;2023-12-28T07:18:48;22.33;15.00;11.00
72854;PMS7003;60991;51.278;22.550;2023-12-28T07:20:18;18.50;15.00;10.00
72854;PMS7003;60991;51.278;22.550;2023-12-28T07:21:48;20.00;17.00;12.00
72854;PMS7003;60991;51.278;22.550;2023-12-28T07:23:19;18.67;17.67;10.33
72854;PMS7003;60991;51.278;22.550;2023-12-28T07:24:49;22.00;16.00;14.00
72854;PMS7003;60991;51.278;22.550;2023-12-28T07:26:19;18.67;15.00;12.00
72854;PMS7003;60991;51.278;22.550;2023-12-28T07:27:49;19.67;18.67;13.33
72854;PMS7003;60991;51.278;22.550;2023-12-28T07:29:19;18.67;16.67;11.00
72854;PMS7003;60991;51.278;22.550;2023-12-28T07:30:50;25.00;20.00;12.33
72854;PMS7003;60991;51.278;22.550;2023-12-28T07:32:20;21.00;16.67;14.33
72854;PMS7003;60991;51.278;22.550;2023-12-28T07:33:50;14.67;7.67;5.00
72854;PMS7003;60991;51.278;22.550;2023-12-28T07:35:20;23.50;18.75;11.75
72854;PMS7003;60991;51.278;22.550;2023-12-28T07:36:51;24.00;18.33;13.33
72854;PMS7003;60991;51.278;22.550;2023-12-28T07:38:21;19.00;15.33;12.00
72854;PMS7003;60991;51.278;22.550;2023-12-28T07:39:52;21.67;16.67;12.00
72854;PMS7003;60991;51.278;22.550;2023-12-28T07:41:22;17.00;15.00;11.00
72854;PMS7003;60991;51.278;22.550;2023-12-28T07:42:52;19.00;15.00;11.00
72854;PMS7003;60991;51.278;22.550;2023-12-28T07:44:23;18.00;18.00;12.67
72854;PMS7003;60991;51.278;22.550;2023-12-28T07:45:53;15.00;13.33;9.00
72854;PMS7003;60991;51.278;22.550;2023-12-28T07:47:23;13.67;13.67;9.67
72854;PMS7003;60991;51.278;22.550;2023-12-28T07:48:53;17.00;15.33;12.00
72854;PMS7003;60991;51.278;22.550;2023-12-28T07:50:23;21.67;17.33;12.67
72854;PMS7003;60991;51.278;22.550;2023-12-28T07:51:53;20.33;15.00;11.00
72854;PMS7003;60991;51.278;22.550;2023-12-28T07:53:24;25.25;18.75;13.75
72854;PMS7003;60991;51.278;22.550;2023-12-28T07:54:54;25.00;15.67;11.00
72854;PMS7003;60991;51.278;22.550;2023-12-28T07:56:24;20.33;18.00;12.00
72854;PMS7003;60991;51.278;22.550;2023-12-28T07:57:55;15.75;14.75;11.75
72854;PMS7003;60991;51.278;22.550;2023-12-28T07:59:25;18.00;16.00;12.00
72854;PMS7003;60991;51.278;22.550;2023-12-28T08:00:55;22.25;16.00;13.25
72854;PMS7003;60991;51.278;22.550;2023-12-28T08:02:25;12.75;11.75;8.25
72854;PMS7003;60991;51.278;22.550;2023-12-28T08:03:55;18.00;13.00;11.33
72854;PMS7003;60991;51.278;22.550;2023-12-28T08:05:26;25.67;22.00;15.00
72854;PMS7003;60991;51.278;22.550;2023-12-28T08:06:56;19.33;15.00;12.00
72854;PMS7003;60991;51.278;22.550;2023-12-28T08:08:26;13.75;13.75;9.00
72854;PMS7003;60991;51.278;22.550;2023-12-28T08:09:56;16.67;16.00;11.00
72854;PMS7003;60991;51.278;22.550;2023-12-28T08:11:27;13.33;13.33;11.00
72854;PMS7003;60991;51.278;22.550;2023-12-28T08:12:57;21.25;17.00;12.75
72854;PMS7003;60991;51.278;22.550;2023-12-28T08:14:28;26.00;19.33;14.33
72854;PMS7003;60991;51.278;22.550;2023-12-28T08:15:58;16.67;14.33;11.33
72854;PMS7003;60991;51.278;22.550;2023-12-28T08:17:28;19.33;16.67;11.00
72854;PMS7003;60991;51.278;22.550;2023-12-28T08:18:58;17.33;16.00;11.33
72854;PMS7003;60991;51.278;22.550;2023-12-28T08:20:28;23.33;15.67;13.33
72854;PMS7003;60991;51.278;22.550;2023-12-28T08:21:59;25.00;19.33;12.33